createdAt,value
2023-03-06T00:00:55.785Z,19.60
2023-03-06T00:03:24.133Z,19.73
2023-03-06T00:05:51.210Z,19.67
2023-03-06T00:08:18.161Z,20.47
2023-03-06T00:10:46.234Z,21.07
2023-03-06T00:13:15.235Z,21.30
2023-03-06T00:15:42.354Z,22.90
2023-03-06T00:18:09.661Z,22.70
2023-03-06T00:20:37.055Z,22.33
2023-03-06T00:23:04.179Z,21.97
2023-03-06T00:25:31.293Z,21.80
2023-03-06T00:27:58.312Z,21.50
2023-03-06T00:30:25.831Z,21.67
2023-03-06T00:32:53.828Z,21.50
2023-03-06T00:35:21.183Z,21.80
2023-03-06T00:37:48.908Z,21.33
2023-03-06T00:40:18.793Z,22.37
2023-03-06T00:42:46.632Z,22.37
2023-03-06T00:45:14.768Z,21.33
2023-03-06T00:47:42.171Z,21.27
2023-03-06T00:50:10.475Z,20.80
2023-03-06T00:52:37.625Z,20.53
2023-03-06T00:55:05.881Z,20.30
2023-03-06T00:57:32.899Z,19.63
2023-03-06T01:00:00.151Z,20.37
2023-03-06T01:02:27.543Z,21.50
2023-03-06T01:04:55.217Z,21.67
2023-03-06T01:07:22.256Z,20.73
2023-03-06T01:09:50.804Z,21.33
2023-03-06T01:12:17.997Z,22.70
2023-03-06T01:14:45.492Z,22.00
2023-03-06T01:17:12.674Z,23.53
2023-03-06T01:19:39.797Z,22.33
2023-03-06T01:22:06.859Z,21.53
2023-03-06T01:24:33.814Z,22.33
2023-03-06T01:27:00.761Z,22.60
2023-03-06T01:29:28.114Z,23.47
2023-03-06T01:31:55.272Z,23.30
2023-03-06T01:34:22.358Z,24.30
2023-03-06T01:36:49.439Z,22.33
2023-03-06T01:39:16.536Z,23.47
2023-03-06T01:41:43.790Z,23.37
2023-03-06T01:44:13.842Z,25.33
2023-03-06T01:46:42.955Z,25.13
2023-03-06T01:49:21.570Z,23.70
2023-03-06T01:51:48.640Z,25.17
2023-03-06T01:54:26.940Z,24.63
2023-03-06T01:57:00.425Z,26.10
2023-03-06T01:59:28.734Z,24.83
2023-03-06T02:01:58.561Z,25.57
2023-03-06T02:04:25.704Z,24.60
2023-03-06T02:06:53.094Z,25.97
2023-03-06T02:09:20.234Z,25.40
2023-03-06T02:11:47.670Z,25.87
2023-03-06T02:14:17.155Z,25.63
2023-03-06T02:16:44.993Z,25.67
2023-03-06T02:19:29.072Z,23.60
2023-03-06T02:21:56.358Z,24.77
2023-03-06T02:24:44.285Z,23.63
2023-03-06T02:27:14.324Z,24.63
2023-03-06T02:29:42.248Z,23.43
2023-03-06T02:32:10.159Z,23.80
2023-03-06T02:34:40.415Z,24.83
2023-03-06T02:37:10.253Z,26.60
2023-03-06T02:39:48.292Z,25.17
2023-03-06T02:42:24.724Z,25.00
2023-03-06T02:44:54.868Z,24.73
2023-03-06T02:47:22.466Z,25.20
2023-03-06T02:49:49.923Z,25.93
2023-03-06T02:52:18.344Z,25.63
2023-03-06T02:54:45.632Z,24.77
2023-03-06T02:57:12.989Z,25.97
2023-03-06T02:59:40.460Z,26.33
2023-03-06T03:02:07.649Z,24.97
2023-03-06T03:04:35.241Z,25.27
2023-03-06T03:07:04.508Z,25.97
2023-03-06T03:09:36.894Z,26.77
2023-03-06T03:12:08.302Z,25.27
2023-03-06T03:14:35.859Z,25.97
2023-03-06T03:17:04.107Z,24.73
2023-03-06T03:19:31.241Z,25.33
2023-03-06T03:21:58.405Z,24.40
2023-03-06T03:24:25.915Z,24.13
2023-03-06T03:26:55.430Z,24.93
2023-03-06T03:29:24.165Z,26.37
2023-03-06T03:31:51.500Z,25.00
2023-03-06T03:34:19.290Z,26.40
2023-03-06T03:36:47.161Z,27.10
2023-03-06T03:39:15.421Z,27.77
2023-03-06T03:41:43.403Z,27.10
2023-03-06T03:44:12.177Z,28.00
2023-03-06T03:46:39.870Z,27.77
2023-03-06T03:49:11.684Z,27.60
2023-03-06T03:51:39.048Z,28.03
2023-03-06T03:54:06.901Z,28.43
2023-03-06T03:56:40.783Z,28.07
2023-03-06T03:59:13.602Z,27.40
2023-03-06T04:01:49.513Z,26.97
2023-03-06T04:04:16.922Z,26.97
2023-03-06T04:06:45.381Z,27.23
2023-03-06T04:09:13.079Z,26.27
2023-03-06T04:11:40.430Z,27.00
2023-03-06T04:14:09.855Z,26.57
2023-03-06T04:16:37.469Z,27.37
2023-03-06T04:19:04.874Z,28.33
2023-03-06T04:21:32.192Z,28.27
2023-03-06T04:23:59.691Z,28.00
2023-03-06T04:26:26.818Z,28.97
2023-03-06T04:28:55.628Z,27.13
2023-03-06T04:31:23.228Z,28.30
2023-03-06T04:33:50.585Z,26.93
2023-03-06T04:36:38.333Z,26.87
2023-03-06T04:39:10.232Z,25.40
2023-03-06T04:41:37.430Z,25.63
2023-03-06T04:44:04.620Z,25.57
2023-03-06T04:46:31.611Z,25.77
2023-03-06T04:48:58.740Z,25.27
2023-03-06T04:51:26.148Z,24.57
2023-03-06T04:53:53.191Z,24.53
2023-03-06T04:56:20.323Z,24.10
2023-03-06T04:58:47.474Z,26.43
2023-03-06T05:01:14.700Z,24.90
2023-03-06T05:03:41.748Z,28.17
2023-03-06T05:06:08.795Z,27.97
2023-03-06T05:08:36.175Z,27.53
2023-03-06T05:11:03.419Z,30.33
2023-03-06T05:13:30.632Z,28.73
2023-03-06T05:16:03.620Z,28.23
2023-03-06T05:18:31.327Z,28.80
2023-03-06T05:21:00.019Z,29.17
2023-03-06T05:23:28.231Z,28.03
2023-03-06T05:25:55.485Z,29.03
2023-03-06T05:28:22.776Z,28.20
2023-03-06T05:30:50.400Z,27.00
2023-03-06T05:33:17.986Z,27.03
2023-03-06T05:35:47.421Z,26.23
2023-03-06T05:38:18.105Z,26.97
2023-03-06T05:40:46.010Z,25.00
2023-03-06T05:43:13.385Z,24.43
2023-03-06T05:45:40.903Z,25.67
2023-03-06T05:48:09.073Z,25.50
2023-03-06T05:50:36.104Z,24.23
2023-03-06T05:53:03.874Z,25.20
2023-03-06T05:55:31.187Z,24.93
2023-03-06T05:57:58.567Z,24.90
2023-03-06T06:00:25.733Z,24.13
2023-03-06T06:02:52.821Z,23.00
2023-03-06T06:05:19.925Z,23.33
2023-03-06T06:07:46.926Z,23.97
2023-03-06T06:10:13.970Z,23.10
2023-03-06T06:12:41.456Z,23.10
2023-03-06T06:15:08.749Z,23.10
2023-03-06T06:17:35.870Z,22.67
2023-03-06T06:20:03.712Z,22.10
2023-03-06T06:22:30.886Z,21.27
2023-03-06T06:24:57.938Z,20.63
2023-03-06T06:27:25.017Z,21.27
2023-03-06T06:29:52.685Z,21.13
2023-03-06T06:32:19.880Z,21.50
2023-03-06T06:34:47.066Z,21.90
2023-03-06T06:37:14.092Z,20.97
2023-03-06T06:39:41.275Z,21.40
2023-03-06T06:42:29.430Z,20.17
2023-03-06T06:44:57.147Z,19.53
2023-03-06T06:47:25.569Z,19.70
2023-03-06T06:49:54.933Z,19.00
2023-03-06T06:52:23.550Z,18.37
2023-03-06T06:54:51.090Z,18.00
2023-03-06T06:57:18.656Z,18.40
2023-03-06T06:59:45.826Z,17.60
2023-03-06T07:02:16.013Z,16.23
2023-03-06T07:05:00.325Z,16.10
2023-03-06T07:07:31.021Z,16.07
2023-03-06T07:09:58.112Z,17.33
2023-03-06T07:12:25.279Z,15.23
2023-03-06T07:14:52.378Z,16.70
2023-03-06T07:17:19.523Z,16.00
2023-03-06T07:19:46.571Z,16.53
2023-03-06T07:22:13.974Z,17.73
2023-03-06T07:24:41.027Z,16.77
2023-03-06T07:27:08.020Z,16.53
2023-03-06T07:29:35.163Z,18.00
2023-03-06T07:32:02.434Z,18.53
2023-03-06T07:34:29.645Z,17.80
2023-03-06T07:36:56.700Z,19.37
2023-03-06T07:39:23.847Z,17.90
2023-03-06T07:41:52.237Z,18.70
2023-03-06T07:44:20.398Z,18.00
2023-03-06T07:46:47.717Z,17.10
2023-03-06T07:49:15.112Z,16.30
2023-03-06T07:51:42.127Z,17.73
2023-03-06T07:54:09.408Z,16.70
2023-03-06T07:56:36.793Z,17.13
2023-03-06T07:59:04.065Z,17.33
2023-03-06T08:01:31.138Z,18.63
2023-03-06T08:03:58.880Z,16.90
2023-03-06T08:06:27.332Z,17.40
2023-03-06T08:08:55.786Z,16.97
2023-03-06T08:11:25.842Z,17.73
2023-03-06T08:13:53.986Z,16.60
2023-03-06T08:16:22.769Z,16.73
2023-03-06T08:18:50.118Z,17.43
2023-03-06T08:21:19.793Z,18.13
2023-03-06T08:23:48.546Z,16.83
2023-03-06T08:26:19.248Z,18.87
2023-03-06T08:28:47.385Z,18.67
2023-03-06T08:31:20.425Z,18.70
2023-03-06T08:33:47.649Z,19.23
2023-03-06T08:36:14.745Z,19.30
2023-03-06T08:38:41.782Z,19.57
2023-03-06T08:41:08.785Z,19.93
2023-03-06T08:43:36.163Z,19.80
2023-03-06T08:46:03.714Z,19.60
2023-03-06T08:48:30.883Z,19.45
2023-03-06T08:50:58.029Z,18.80
2023-03-06T08:53:40.396Z,19.88
2023-03-06T08:56:15.187Z,18.92
2023-03-06T08:58:42.267Z,17.98
2023-03-06T09:01:18.517Z,17.27
2023-03-06T09:03:45.684Z,16.98
2023-03-06T09:06:13.340Z,15.68
2023-03-06T09:08:43.169Z,14.45
2023-03-06T09:11:12.192Z,13.30
2023-03-06T09:13:39.513Z,13.82
2023-03-06T09:16:07.345Z,13.10
2023-03-06T09:18:34.447Z,10.25
2023-03-06T09:21:02.362Z,10.00
2023-03-06T09:23:29.985Z,10.10
2023-03-06T09:25:58.943Z,9.63
2023-03-06T09:28:26.310Z,9.68
2023-03-06T09:30:53.855Z,9.80
2023-03-06T09:33:23.044Z,7.93
2023-03-06T09:35:56.440Z,7.28
2023-03-06T09:38:26.233Z,7.63
2023-03-06T09:40:53.156Z,7.68
2023-03-06T09:43:28.611Z,7.32
2023-03-06T09:45:56.319Z,6.93
2023-03-06T09:48:40.652Z,5.78
2023-03-06T09:51:16.216Z,6.18
2023-03-06T09:54:06.893Z,6.03
2023-03-06T09:56:35.835Z,5.47
2023-03-06T09:59:17.582Z,5.97
2023-03-06T10:01:54.764Z,5.18
2023-03-06T10:04:42.143Z,5.35
2023-03-06T10:07:47.998Z,5.35
2023-03-06T10:10:26.025Z,5.03
2023-03-06T10:13:28.480Z,4.80
2023-03-06T10:16:03.600Z,4.60
2023-03-06T10:18:31.732Z,4.80
2023-03-06T10:21:16.935Z,4.57
2023-03-06T10:24:03.471Z,4.15
2023-03-06T10:26:42.358Z,3.95
2023-03-06T10:29:41.062Z,3.72
2023-03-06T10:32:46.203Z,3.42
2023-03-06T10:35:21.806Z,3.33
2023-03-06T10:37:49.676Z,3.10
2023-03-06T10:40:21.004Z,2.80
2023-03-06T10:42:49.520Z,2.95
2023-03-06T10:45:19.366Z,3.70
2023-03-06T10:47:46.471Z,3.80
2023-03-06T10:50:25.447Z,4.03
2023-03-06T10:53:00.938Z,3.50
2023-03-06T10:55:30.956Z,3.70
2023-03-06T10:57:58.118Z,6.50
2023-03-06T11:00:30.151Z,5.47
2023-03-06T11:03:18.862Z,5.95
2023-03-06T11:05:57.564Z,5.38
2023-03-06T11:08:24.684Z,5.90
2023-03-06T11:11:36.770Z,5.63
2023-03-06T11:14:16.036Z,6.05
2023-03-06T11:16:53.824Z,5.47
2023-03-06T11:19:26.624Z,5.55
2023-03-06T11:22:17.848Z,5.60
2023-03-06T11:24:51.729Z,6.63
2023-03-06T11:27:34.818Z,6.05
2023-03-06T11:30:08.832Z,5.93
2023-03-06T11:32:43.911Z,6.50
2023-03-06T11:35:16.699Z,5.82
2023-03-06T11:37:53.953Z,6.10
2023-03-06T11:40:30.839Z,5.95
2023-03-06T11:43:23.397Z,6.43
2023-03-06T11:45:59.753Z,6.20
2023-03-06T11:48:43.692Z,6.47
2023-03-06T11:51:17.574Z,6.10
2023-03-06T11:53:44.833Z,6.40
2023-03-06T11:56:20.310Z,6.53
2023-03-06T11:58:50.066Z,6.97
2023-03-06T12:01:36.002Z,6.93
2023-03-06T12:04:33.354Z,6.40
2023-03-06T12:07:22.006Z,7.05
2023-03-06T12:10:13.434Z,6.55
2023-03-06T12:13:01.857Z,6.28
2023-03-06T12:15:40.853Z,6.60
2023-03-06T12:18:26.546Z,6.28
2023-03-06T12:21:28.522Z,6.70
2023-03-06T12:24:20.578Z,6.90
2023-03-06T12:27:01.272Z,6.50
2023-03-06T12:29:54.148Z,6.20
2023-03-06T12:32:40.325Z,7.03
2023-03-06T12:35:34.795Z,6.88
2023-03-06T12:38:14.000Z,6.38
2023-03-06T12:41:02.585Z,6.53
2023-03-06T12:43:35.498Z,6.90
2023-03-06T12:46:19.108Z,6.68
2023-03-06T12:48:58.112Z,6.65
2023-03-06T12:51:25.562Z,7.10
2023-03-06T12:53:53.446Z,7.18
2023-03-06T12:56:22.292Z,6.55
2023-03-06T12:58:57.463Z,6.30
2023-03-06T13:01:36.843Z,6.40
2023-03-06T13:04:25.839Z,6.28
2023-03-06T13:07:11.597Z,6.53
2023-03-06T13:10:22.500Z,6.22
2023-03-06T13:12:55.806Z,6.57
2023-03-06T13:15:35.077Z,6.50
2023-03-06T13:18:26.677Z,6.22
2023-03-06T13:20:55.234Z,5.40
2023-03-06T13:23:37.418Z,5.25
2023-03-06T13:26:25.638Z,5.15
2023-03-06T13:28:55.134Z,5.07
2023-03-06T13:31:34.058Z,5.35
2023-03-06T13:34:24.981Z,6.07
2023-03-06T13:36:52.166Z,5.60
2023-03-06T13:39:19.195Z,5.45
2023-03-06T13:41:59.332Z,6.20
2023-03-06T13:44:26.308Z,6.40
2023-03-06T13:46:58.153Z,6.18
2023-03-06T13:49:26.213Z,6.32
2023-03-06T13:51:53.577Z,6.38
2023-03-06T13:54:41.934Z,6.80
2023-03-06T13:57:32.200Z,6.95
2023-03-06T14:00:10.886Z,6.93
2023-03-06T14:03:06.552Z,6.93
2023-03-06T14:05:43.441Z,6.67
2023-03-06T14:08:18.534Z,7.03
2023-03-06T14:10:48.238Z,6.50
2023-03-06T14:13:23.691Z,6.30
2023-03-06T14:15:55.817Z,5.90
2023-03-06T14:18:29.599Z,6.47
2023-03-06T14:21:05.346Z,5.97
2023-03-06T14:23:38.335Z,6.07
2023-03-06T14:26:20.376Z,5.90
2023-03-06T14:28:53.327Z,6.00
2023-03-06T14:31:27.785Z,6.33
2023-03-06T14:34:00.669Z,6.03
2023-03-06T14:36:33.970Z,6.07
2023-03-06T14:39:12.252Z,6.70
2023-03-06T14:41:39.797Z,6.63
2023-03-06T14:44:21.628Z,5.30
2023-03-06T14:46:50.077Z,5.00
2023-03-06T14:49:19.643Z,4.70
2023-03-06T14:51:55.824Z,5.07
2023-03-06T14:54:28.734Z,5.00
2023-03-06T14:57:03.338Z,4.33
2023-03-06T14:59:38.120Z,4.50
2023-03-06T15:02:08.999Z,4.90
2023-03-06T15:05:03.254Z,4.07
2023-03-06T15:07:32.670Z,4.40
2023-03-06T15:10:00.706Z,4.57
2023-03-06T15:12:29.775Z,4.43
2023-03-06T15:15:10.774Z,3.93
2023-03-06T15:17:43.665Z,3.97
2023-03-06T15:20:38.414Z,4.03
2023-03-06T15:23:21.743Z,4.90
2023-03-06T15:26:04.300Z,4.53
2023-03-06T15:28:38.751Z,4.47
2023-03-06T15:31:17.379Z,4.27
2023-03-06T15:33:44.823Z,4.13
2023-03-06T15:36:27.729Z,4.40
2023-03-06T15:38:56.438Z,4.67
2023-03-06T15:41:38.593Z,4.60
2023-03-06T15:44:13.757Z,5.10
2023-03-06T15:46:41.416Z,5.30
2023-03-06T15:49:16.750Z,5.13
2023-03-06T15:51:43.944Z,4.90
2023-03-06T15:54:12.632Z,5.23
2023-03-06T15:56:42.175Z,5.10
2023-03-06T15:59:23.620Z,5.23
2023-03-06T16:01:51.268Z,4.93
2023-03-06T16:04:19.989Z,4.30
2023-03-06T16:06:47.095Z,4.80
2023-03-06T16:09:14.792Z,4.70
2023-03-06T16:11:44.906Z,4.90
2023-03-06T16:14:24.110Z,5.00
2023-03-06T16:16:54.241Z,5.77
2023-03-06T16:19:26.413Z,5.30
2023-03-06T16:21:55.174Z,5.27
2023-03-06T16:24:22.204Z,5.40
2023-03-06T16:26:51.562Z,5.90
2023-03-06T16:29:23.839Z,5.30
2023-03-06T16:31:51.349Z,5.13
2023-03-06T16:34:21.509Z,5.03
2023-03-06T16:36:49.412Z,4.93
2023-03-06T16:39:21.827Z,5.37
2023-03-06T16:41:49.494Z,5.30
2023-03-06T16:44:16.496Z,5.00
2023-03-06T16:46:46.222Z,5.37
2023-03-06T16:49:31.408Z,4.97
2023-03-06T16:52:00.523Z,6.10
2023-03-06T16:54:27.507Z,6.00
2023-03-06T16:56:54.539Z,5.60
2023-03-06T16:59:21.523Z,6.23
2023-03-06T17:01:48.606Z,6.73
2023-03-06T17:04:15.616Z,7.57
2023-03-06T17:06:43.244Z,7.33
2023-03-06T17:09:11.164Z,6.67
2023-03-06T17:11:38.813Z,7.23
2023-03-06T17:14:07.082Z,7.30
2023-03-06T17:16:36.620Z,7.73
2023-03-06T17:19:03.710Z,7.73
2023-03-06T17:21:30.691Z,8.80
2023-03-06T17:23:57.912Z,9.07
2023-03-06T17:26:25.031Z,9.10
2023-03-06T17:28:52.070Z,9.17
2023-03-06T17:31:24.571Z,8.97
2023-03-06T17:33:52.789Z,8.60
2023-03-06T17:36:19.745Z,8.30
2023-03-06T17:38:47.151Z,8.47
2023-03-06T17:41:14.492Z,8.63
2023-03-06T17:43:42.284Z,8.43
2023-03-06T17:46:12.875Z,8.40
2023-03-06T17:48:40.597Z,8.80
2023-03-06T17:51:08.574Z,9.40
2023-03-06T17:53:35.959Z,9.80
2023-03-06T17:56:09.530Z,8.93
2023-03-06T17:58:37.092Z,10.07
2023-03-06T18:01:22.479Z,10.43
2023-03-06T18:03:50.904Z,10.33
2023-03-06T18:06:19.565Z,11.43
2023-03-06T18:08:46.727Z,11.17
2023-03-06T18:11:14.213Z,11.10
2023-03-06T18:13:43.618Z,11.37
2023-03-06T18:16:13.360Z,11.00
2023-03-06T18:18:40.915Z,12.00
2023-03-06T18:21:10.769Z,11.90
2023-03-06T18:23:39.571Z,12.60
2023-03-06T18:26:42.744Z,12.63
2023-03-06T18:29:10.130Z,12.17
2023-03-06T18:31:39.815Z,13.53
2023-03-06T18:34:10.314Z,14.93
2023-03-06T18:36:38.061Z,15.43
2023-03-06T18:39:10.121Z,16.73
2023-03-06T18:41:37.440Z,18.03
2023-03-06T18:44:05.303Z,18.20
2023-03-06T18:46:37.845Z,17.93
2023-03-06T18:49:05.589Z,18.00
2023-03-06T18:51:32.836Z,18.27
2023-03-06T18:54:01.351Z,19.23
2023-03-06T18:56:28.730Z,19.47
2023-03-06T18:58:56.166Z,20.03
2023-03-06T19:01:24.014Z,18.93
2023-03-06T19:03:51.175Z,18.63
2023-03-06T19:06:18.548Z,19.23
2023-03-06T19:08:45.640Z,19.60
2023-03-06T19:11:17.442Z,19.37
2023-03-06T19:13:45.197Z,19.37
2023-03-06T19:16:24.237Z,20.00
2023-03-06T19:18:51.654Z,20.03
2023-03-06T19:21:21.025Z,19.53
2023-03-06T19:23:48.742Z,21.17
2023-03-06T19:26:16.278Z,21.27
2023-03-06T19:28:43.596Z,20.77
2023-03-06T19:31:20.488Z,19.97
2023-03-06T19:33:49.227Z,20.60
2023-03-06T19:36:17.338Z,19.43
2023-03-06T19:38:44.911Z,19.87
2023-03-06T19:41:13.880Z,20.73
2023-03-06T19:43:42.758Z,19.77
2023-03-06T19:46:16.334Z,19.60
2023-03-06T19:48:44.555Z,20.53
2023-03-06T19:51:11.791Z,21.13
2023-03-06T19:53:40.002Z,21.60
2023-03-06T19:56:14.850Z,21.47
2023-03-06T19:58:42.695Z,21.27
2023-03-06T20:01:15.201Z,23.07
2023-03-06T20:03:42.898Z,24.07
2023-03-06T20:06:16.235Z,25.50
2023-03-06T20:08:44.283Z,25.37
2023-03-06T20:11:24.747Z,25.33
2023-03-06T20:13:52.323Z,25.13
2023-03-06T20:16:19.938Z,24.77
2023-03-06T20:18:47.106Z,24.60
2023-03-06T20:21:14.995Z,25.47
2023-03-06T20:23:42.600Z,26.93
2023-03-06T20:26:12.271Z,26.47
2023-03-06T20:28:41.018Z,25.23
2023-03-06T20:31:28.430Z,27.37
2023-03-06T20:33:58.268Z,27.77
2023-03-06T20:36:36.128Z,28.27
2023-03-06T20:39:06.888Z,30.13
2023-03-06T20:41:34.007Z,31.77
2023-03-06T20:44:02.911Z,32.63
2023-03-06T20:46:30.928Z,35.23
2023-03-06T20:48:58.358Z,34.43
2023-03-06T20:51:31.787Z,33.90
2023-03-06T20:54:01.001Z,33.03
2023-03-06T20:56:30.668Z,33.07
2023-03-06T20:58:58.754Z,32.83
2023-03-06T21:01:28.362Z,33.90
2023-03-06T21:03:59.604Z,33.30
2023-03-06T21:06:28.989Z,33.10
2023-03-06T21:08:57.598Z,33.07
2023-03-06T21:11:25.054Z,32.83
2023-03-06T21:13:55.473Z,32.47
2023-03-06T21:16:25.008Z,31.40
2023-03-06T21:18:54.959Z,31.50
2023-03-06T21:21:24.998Z,32.03
2023-03-06T21:23:52.691Z,32.13
2023-03-06T21:26:22.363Z,32.93
2023-03-06T21:28:49.646Z,33.17
2023-03-06T21:31:19.040Z,33.27
2023-03-06T21:33:47.275Z,34.40
2023-03-06T21:36:15.927Z,34.93
2023-03-06T21:38:43.125Z,33.47
2023-03-06T21:41:16.210Z,34.07
2023-03-06T21:43:43.965Z,35.97
2023-03-06T21:46:12.093Z,37.30
2023-03-06T21:48:39.341Z,39.17
2023-03-06T21:51:15.913Z,39.90
2023-03-06T21:53:44.326Z,41.93
2023-03-06T21:56:12.683Z,42.00
2023-03-06T21:58:40.115Z,42.53
2023-03-06T22:01:12.313Z,41.83
2023-03-06T22:03:39.484Z,44.00
2023-03-06T22:06:15.075Z,44.40
2023-03-06T22:08:42.770Z,45.23
2023-03-06T22:11:12.297Z,44.50
2023-03-06T22:13:39.885Z,43.93
2023-03-06T22:16:07.513Z,43.20
2023-03-06T22:18:36.119Z,44.47
2023-03-06T22:21:10.367Z,42.67
2023-03-06T22:23:37.900Z,43.87
2023-03-06T22:26:06.767Z,44.13
2023-03-06T22:28:34.165Z,41.57
2023-03-06T22:31:10.269Z,38.83
2023-03-06T22:33:37.824Z,37.50
2023-03-06T22:36:08.056Z,37.33
2023-03-06T22:38:37.278Z,35.83
2023-03-06T22:41:06.005Z,35.80
2023-03-06T22:43:33.523Z,36.03
2023-03-06T22:46:06.190Z,36.07
2023-03-06T22:48:33.447Z,35.03
2023-03-06T22:51:09.403Z,35.63
2023-03-06T22:53:37.504Z,34.17
2023-03-06T22:56:06.771Z,34.93
2023-03-06T22:58:37.060Z,35.30
2023-03-06T23:01:05.556Z,32.97
2023-03-06T23:03:32.698Z,32.17
2023-03-06T23:05:59.721Z,32.97
2023-03-06T23:08:26.827Z,36.47
2023-03-06T23:10:54.041Z,43.00
2023-03-06T23:13:39.564Z,43.87
2023-03-06T23:16:25.507Z,41.83
2023-03-06T23:19:11.510Z,41.97
2023-03-06T23:21:57.434Z,42.47
2023-03-06T23:24:43.264Z,42.90
2023-03-06T23:27:10.557Z,40.93
2023-03-06T23:29:37.880Z,38.43
2023-03-06T23:32:05.272Z,35.97
2023-03-06T23:34:32.232Z,34.87
2023-03-06T23:36:59.327Z,34.13
2023-03-06T23:39:26.700Z,33.33
2023-03-06T23:41:54.083Z,31.63
2023-03-06T23:44:21.347Z,28.23
2023-03-06T23:46:48.586Z,27.63
2023-03-06T23:49:15.740Z,27.37
2023-03-06T23:51:42.875Z,27.67
2023-03-06T23:54:10.252Z,26.27
2023-03-06T23:56:37.383Z,24.63
2023-03-06T23:59:04.749Z,23.80
